Time;durP1;ratioP1;P1;durP2;ratioP2;P2;SDS_P1;SDS_P2;PMS_P1;PMS_P2;Temp;Humidity;BMP_temperature;BMP_pressure;BME280_temperature;BME280_humidity;BME280_pressure;Samples;Min_cycle;Max_cycle;Signal;HPM_P1;HPM_P2
2020/12/29 00:02:19;;;;;;;1.92;1.30;;;;;;;7.29;63.87;93623.41;1724681;82;21161;-82
2020/12/29 00:04:46;;;;;;;1.07;0.80;;;;;;;7.20;63.97;93621.20;1720504;82;21145;-82
2020/12/29 00:07:12;;;;;;;1.27;1.10;;;;;;;7.17;64.00;93655.23;1713763;82;21294;-82
2020/12/29 00:09:39;;;;;;;1.10;1.00;;;;;;;7.17;64.25;93592.47;1710833;83;21423;-82
2020/12/29 00:12:05;;;;;;;1.25;1.12;;;;;;;7.13;64.29;93600.37;1718362;82;21132;-82
2020/12/29 00:14:31;;;;;;;1.07;0.80;;;;;;;7.11;64.32;93608.85;1710867;83;21147;-82
2020/12/29 00:16:57;;;;;;;1.50;1.10;;;;;;;7.10;64.24;93592.58;1702420;82;21160;-82
2020/12/29 00:19:25;;;;;;;1.05;0.78;;;;;;;7.10;64.48;93615.03;1707463;82;21116;-82
2020/12/29 00:21:51;;;;;;;2.17;1.05;;;;;;;7.09;64.45;93595.39;1708231;82;21131;-82
2020/12/29 00:24:18;;;;;;;1.15;0.90;;;;;;;7.11;64.28;93609.64;1704162;82;21229;-81
2020/12/29 00:26:44;;;;;;;1.00;0.90;;;;;;;7.18;64.28;93582.41;1723358;82;21346;-81
2020/12/29 00:29:10;;;;;;;1.40;1.20;;;;;;;7.23;64.12;93610.41;1708262;83;21320;-82
2020/12/29 00:31:36;;;;;;;1.50;1.07;;;;;;;7.21;64.08;93593.58;1700629;83;21273;-82
2020/12/29 00:34:02;;;;;;;2.35;1.37;;;;;;;7.23;64.33;93587.67;1709905;82;21379;-81
2020/12/29 00:36:28;;;;;;;1.27;1.00;;;;;;;7.15;64.35;93593.17;1706260;82;21531;-82
2020/12/29 00:38:55;;;;;;;1.57;1.30;;;;;;;7.09;64.50;93605.72;1719540;82;21169;-82
2020/12/29 00:41:21;;;;;;;1.70;1.45;;;;;;;7.07;64.43;93590.96;1723584;82;21333;-82
2020/12/29 00:43:47;;;;;;;2.00;1.10;;;;;;;7.09;64.46;93580.68;1715339;82;21256;-82
2020/12/29 00:46:16;;;;;;;2.02;1.55;;;;;;;7.09;64.58;93592.80;1703560;83;21124;-82
2020/12/29 00:48:42;;;;;;;2.15;1.37;;;;;;;7.06;64.64;93582.94;1714416;82;21134;-81
2020/12/29 00:51:17;;;;;;;2.17;1.50;;;;;;;7.06;64.60;93583.72;1711429;83;21242;-81
2020/12/29 00:53:43;;;;;;;2.42;2.15;;;;;;;7.06;64.60;93579.85;1717149;82;21149;-81
2020/12/29 00:56:09;;;;;;;2.00;1.30;;;;;;;7.04;64.62;93581.88;1707579;83;21093;-81
2020/12/29 00:58:36;;;;;;;1.62;1.30;;;;;;;7.02;64.63;93582.62;1714941;83;21253;-81
2020/12/29 01:01:07;;;;;;;1.70;1.15;;;;;;;7.03;64.73;93581.60;1715133;83;21191;-81
2020/12/29 01:03:33;;;;;;;1.77;1.20;;;;;;;7.06;64.68;93575.98;1708458;82;21122;-81
2020/12/29 01:06:00;;;;;;;2.37;1.50;;;;;;;7.10;64.67;93583.54;1723788;82;21116;-81
2020/12/29 01:08:26;;;;;;;1.30;0.90;;;;;;;7.12;64.67;93569.11;1733624;82;21152;-81
2020/12/29 01:10:57;;;;;;;0.80;0.70;;;;;;;7.11;64.40;93567.03;1719353;82;21116;-81
2020/12/29 01:13:23;;;;;;;1.50;1.15;;;;;;;7.10;64.33;93577.08;1709692;82;21131;-81
2020/12/29 01:15:50;;;;;;;1.95;1.32;;;;;;;7.11;64.78;93578.66;1718357;82;21116;-81
2020/12/29 01:18:16;;;;;;;2.27;1.27;;;;;;;7.07;64.73;93565.14;1724417;82;21127;-81
2020/12/29 01:20:42;;;;;;;1.17;1.07;;;;;;;7.05;64.90;93575.70;1725154;82;21254;-81
2020/12/29 01:23:08;;;;;;;1.75;0.98;;;;;;;7.01;65.21;93571.23;1721131;82;21222;-81
2020/12/29 01:25:35;;;;;;;2.25;1.10;;;;;;;6.89;65.18;93569.45;1718431;82;21460;-81
2020/12/29 01:28:01;;;;;;;1.35;1.20;;;;;;;6.89;65.45;93564.79;1713283;82;21147;-81
2020/12/29 01:30:27;;;;;;;1.80;1.12;;;;;;;6.92;65.64;93557.88;1725463;82;21120;-81
2020/12/29 01:32:54;;;;;;;1.42;1.17;;;;;;;6.95;65.66;93553.55;1722252;81;21124;-81
2020/12/29 01:35:20;;;;;;;1.05;1.00;;;;;;;6.99;65.78;93555.16;1714375;82;21333;-81
2020/12/29 01:37:46;;;;;;;1.85;1.37;;;;;;;7.06;65.81;93535.96;1716610;82;21096;-81
2020/12/29 01:40:13;;;;;;;1.82;1.37;;;;;;;7.15;65.80;93538.44;1725284;82;21131;-81
2020/12/29 01:42:39;;;;;;;1.22;1.12;;;;;;;7.19;65.69;93534.91;1724733;82;21252;-81
2020/12/29 01:45:08;;;;;;;1.67;1.07;;;;;;;7.23;65.52;93531.64;1733885;82;21146;-81
2020/12/29 01:47:38;;;;;;;6.90;4.20;;;;;;;7.27;65.54;93535.05;1726284;82;21423;-81
2020/12/29 01:50:13;;;;;;;3.83;2.55;;;;;;;7.29;65.57;93533.80;1702099;82;21145;-81
2020/12/29 01:52:40;;;;;;;4.33;2.80;;;;;;;7.31;65.71;93538.22;1715775;81;21108;-79
2020/12/29 01:55:10;;;;;;;8.18;3.95;;;;;;;7.31;65.97;93525.81;1721862;82;21141;-79
2020/12/29 01:57:36;;;;;;;1.80;1.17;;;;;;;7.30;66.03;93530.70;1716766;82;21282;-80
2020/12/29 02:00:07;;;;;;;2.58;1.55;;;;;;;7.27;66.20;93528.08;1726914;82;21120;-80
2020/12/29 02:02:33;;;;;;;2.65;2.00;;;;;;;7.27;66.82;93519.55;1724321;82;21125;-80
2020/12/29 02:04:59;;;;;;;2.10;1.32;;;;;;;7.25;67.17;93504.80;1738853;81;21113;-80
2020/12/29 02:07:26;;;;;;;4.53;2.58;;;;;;;7.18;67.60;93511.40;1724861;81;21307;-79
2020/12/29 02:09:52;;;;;;;2.45;1.45;;;;;;;7.12;68.13;93496.30;1734772;81;21402;-80
2020/12/29 02:12:30;;;;;;;1.00;0.80;;;;;;;7.04;68.27;93494.09;1709694;82;21124;-79
2020/12/29 02:14:56;;;;;;;1.07;0.75;;;;;;;6.98;68.53;93487.25;1747676;81;21139;-80
2020/12/29 02:17:26;;;;;;;3.15;1.87;;;;;;;6.95;68.34;93464.99;1732059;81;21179;-80
2020/12/29 02:19:52;;;;;;;1.00;0.60;;;;;;;6.94;68.41;93461.63;1709225;82;21140;-79
2020/12/29 02:22:24;;;;;;;0.60;0.50;;;;;;;6.96;68.60;93438.16;1735363;82;21148;-79
2020/12/29 02:24:53;;;;;;;0.50;0.50;;;;;;;6.96;68.40;93440.23;1735252;81;21095;-80
2020/12/29 02:27:20;;;;;;;1.02;0.50;;;;;;;6.95;68.34;93451.58;1735309;81;21238;-80
2020/12/29 02:29:46;;;;;;;0.98;0.70;;;;;;;6.92;68.52;93441.72;1734579;82;21090;-80
2020/12/29 02:32:13;;;;;;;1.98;0.60;;;;;;;6.89;68.85;93427.98;1735029;81;21096;-80
2020/12/29 02:34:39;;;;;;;0.65;0.65;;;;;;;6.88;68.42;93436.75;1732057;81;21295;-80
2020/12/29 02:37:07;;;;;;;0.90;0.80;;;;;;;6.88;68.79;93465.14;1740048;81;21314;-80
2020/12/29 02:39:34;;;;;;;0.68;0.50;;;;;;;6.88;69.05;93441.41;1730196;81;21322;-80
2020/12/29 02:42:00;;;;;;;0.60;0.50;;;;;;;6.91;68.64;93445.31;1736689;82;21507;-80
2020/12/29 02:44:26;;;;;;;1.25;0.78;;;;;;;6.91;68.68;93437.58;1731539;81;21093;-80
2020/12/29 02:46:52;;;;;;;1.37;0.70;;;;;;;6.89;68.77;93426.19;1735107;81;21338;-79
2020/12/29 02:49:18;;;;;;;0.60;0.45;;;;;;;6.83;69.04;93429.70;1743094;81;21091;-80
2020/12/29 02:51:44;;;;;;;0.60;0.55;;;;;;;6.79;68.75;93422.13;1740174;81;21315;-80
2020/12/29 02:54:12;;;;;;;0.60;0.50;;;;;;;6.77;68.86;93430.61;1734910;81;21115;-80
2020/12/29 02:56:40;;;;;;;0.55;0.40;;;;;;;6.75;68.80;93435.72;1733575;81;21138;-79
2020/12/29 02:59:06;;;;;;;0.78;0.60;;;;;;;6.74;68.80;93446.55;1708311;82;21334;-80
2020/12/29 03:01:33;;;;;;;0.68;0.68;;;;;;;6.76;68.69;93446.32;1737556;81;21131;-80
2020/12/29 03:03:59;;;;;;;1.17;0.82;;;;;;;6.76;68.62;93454.84;1740789;81;21431;-80
2020/12/29 03:06:25;;;;;;;0.68;0.50;;;;;;;6.75;68.81;93453.28;1744735;81;21111;-80
2020/12/29 03:08:52;;;;;;;0.78;0.60;;;;;;;6.73;68.81;93454.02;1719587;82;21108;-80
2020/12/29 03:11:28;;;;;;;0.70;0.60;;;;;;;6.72;68.96;93458.12;1721799;82;21437;-80
2020/12/29 03:13:55;;;;;;;0.82;0.72;;;;;;;6.69;69.05;93452.13;1717588;82;21087;-80
2020/12/29 03:16:22;;;;;;;1.45;1.10;;;;;;;6.63;69.19;93448.14;1721403;82;21132;-79
2020/12/29 03:18:48;;;;;;;1.40;1.20;;;;;;;6.59;69.27;93457.36;1721458;82;21129;-79
2020/12/29 03:21:14;;;;;;;1.52;1.15;;;;;;;6.57;69.10;93457.31;1736748;81;21315;-80
2020/12/29 03:23:40;;;;;;;1.27;0.88;;;;;;;6.58;69.14;93449.84;1721142;82;21140;-80
2020/12/29 03:26:07;;;;;;;1.00;0.80;;;;;;;6.59;68.93;93445.75;1739766;82;21064;-80
2020/12/29 03:28:33;;;;;;;0.72;0.60;;;;;;;6.62;68.99;93446.58;1740510;81;21577;-80
2020/12/29 03:30:59;;;;;;;0.33;0.33;;;;;;;6.61;68.80;93428.75;1735951;81;21363;-79
2020/12/29 03:33:25;;;;;;;0.50;0.50;;;;;;;6.59;68.66;93438.52;1728617;82;21085;-79
2020/12/29 03:35:52;;;;;;;0.50;0.50;;;;;;;6.58;68.68;93438.24;1726312;82;21111;-79
2020/12/29 03:38:18;;;;;;;0.60;0.60;;;;;;;6.57;68.84;93441.84;1731011;82;21114;-79
2020/12/29 03:40:44;;;;;;;0.80;0.60;;;;;;;6.53;68.99;93438.16;1731303;82;21100;-80
2020/12/29 03:43:13;;;;;;;0.70;0.70;;;;;;;6.43;68.87;93428.41;1717938;82;21119;-80
2020/12/29 03:45:44;;;;;;;0.90;0.60;;;;;;;6.36;69.13;93436.78;1715308;82;21136;-80
2020/12/29 03:48:11;;;;;;;0.62;0.42;;;;;;;6.28;69.38;93440.48;1716126;82;21096;-80
2020/12/29 03:50:38;;;;;;;1.52;0.40;;;;;;;6.21;69.45;93445.49;1730770;82;21115;-80
2020/12/29 03:53:05;;;;;;;0.50;0.50;;;;;;;6.14;69.63;93444.30;1726074;82;21330;-80
2020/12/29 03:55:32;;;;;;;0.60;0.60;;;;;;;6.13;69.71;93456.92;1738970;82;21084;-80
2020/12/29 03:57:58;;;;;;;0.80;0.60;;;;;;;6.14;69.69;93460.28;1719730;82;21242;-80
2020/12/29 04:00:24;;;;;;;0.88;0.60;;;;;;;6.06;69.61;93458.05;1722346;81;21112;-80
2020/12/29 04:02:50;;;;;;;0.50;0.50;;;;;;;6.00;69.79;93467.45;1719642;81;21117;-80
2020/12/29 04:05:16;;;;;;;0.40;0.40;;;;;;;5.95;69.92;93478.94;1735761;81;21274;-80
2020/12/29 04:07:43;;;;;;;0.42;0.40;;;;;;;5.84;70.11;93488.20;1738379;82;21246;-79
2020/12/29 04:10:09;;;;;;;0.50;0.50;;;;;;;5.72;69.74;93486.91;1728854;81;21249;-79
2020/12/29 04:12:36;;;;;;;0.80;0.60;;;;;;;5.75;70.20;93486.19;1734547;81;21123;-79
2020/12/29 04:15:03;;;;;;;1.90;1.30;;;;;;;5.72;70.42;93481.77;1743726;81;21136;-79
2020/12/29 04:17:37;;;;;;;2.37;1.25;;;;;;;5.72;70.37;93484.34;1734220;81;21245;-80
2020/12/29 04:20:05;;;;;;;1.10;0.82;;;;;;;5.73;70.34;93491.06;1731583;81;21210;-80
2020/12/29 04:22:32;;;;;;;1.02;0.85;;;;;;;5.71;70.60;93480.70;1741719;81;21139;-80
2020/12/29 04:24:59;;;;;;;1.02;0.70;;;;;;;5.66;70.56;93491.65;1734450;82;21115;-79
2020/12/29 04:27:26;;;;;;;2.50;1.52;;;;;;;5.64;70.54;93485.94;1717483;82;21123;-79
2020/12/29 04:29:52;;;;;;;4.40;2.47;;;;;;;5.64;70.50;93486.44;1730509;81;21112;-80
2020/12/29 04:32:19;;;;;;;0.72;0.60;;;;;;;5.67;70.30;93488.56;1737918;81;21155;-79
2020/12/29 04:34:45;;;;;;;0.65;0.50;;;;;;;5.72;70.30;93492.06;1735536;81;21138;-79
2020/12/29 04:37:14;;;;;;;1.52;1.05;;;;;;;5.78;70.01;93504.55;1738913;81;21120;-79
2020/12/29 04:39:40;;;;;;;0.50;0.50;;;;;;;5.84;69.89;93501.58;1737159;81;21132;-80
2020/12/29 04:42:12;;;;;;;0.40;0.40;;;;;;;5.87;69.93;93505.03;1737767;81;21122;-80
2020/12/29 04:44:39;;;;;;;0.47;0.47;;;;;;;5.88;69.96;93502.73;1737959;81;21343;-79
2020/12/29 04:47:07;;;;;;;0.40;0.40;;;;;;;5.90;69.72;93505.39;1736022;82;21112;-79
2020/12/29 04:49:34;;;;;;;1.55;0.70;;;;;;;5.90;69.61;93502.81;1711570;82;21108;-80
2020/12/29 04:52:04;;;;;;;0.50;0.50;;;;;;;5.91;70.13;93511.33;1742764;81;21417;-80
2020/12/29 04:54:35;;;;;;;0.40;0.40;;;;;;;5.89;69.99;93514.10;1743405;81;21319;-79
2020/12/29 04:57:03;;;;;;;0.65;0.50;;;;;;;5.90;70.24;93513.13;1732233;81;21277;-80
2020/12/29 04:59:29;;;;;;;0.40;0.40;;;;;;;5.89;70.75;93514.61;1743521;81;21124;-80
2020/12/29 05:01:57;;;;;;;0.60;0.60;;;;;;;5.84;70.71;93512.67;1743295;81;21132;-79
2020/12/29 05:04:23;;;;;;;0.53;0.47;;;;;;;5.81;71.79;93521.36;1737654;81;21091;-80
2020/12/29 05:06:53;;;;;;;0.50;0.50;;;;;;;5.73;71.74;93532.78;1730567;81;21407;-79
2020/12/29 05:09:19;;;;;;;0.35;0.35;;;;;;;5.68;71.92;93542.44;1743551;81;21222;-81
2020/12/29 05:11:46;;;;;;;0.55;0.40;;;;;;;5.65;72.00;93539.02;1712465;82;21445;-81
2020/12/29 05:14:12;;;;;;;0.50;0.50;;;;;;;5.62;72.82;93551.56;1736354;81;21120;-81
2020/12/29 05:16:41;;;;;;;0.53;0.40;;;;;;;5.59;72.63;93557.94;1739754;81;21164;-81
2020/12/29 05:19:15;;;;;;;0.72;0.60;;;;;;;5.54;72.84;93571.20;1738216;81;21123;-81
2020/12/29 05:21:42;;;;;;;0.50;0.50;;;;;;;5.48;73.07;93583.65;1730682;81;21147;-81
2020/12/29 05:24:18;;;;;;;2.10;1.70;;;;;;;5.46;73.22;93602.40;1735450;81;21099;-81
2020/12/29 05:26:48;;;;;;;1.70;1.25;;;;;;;5.43;73.48;93613.42;1744567;81;21167;-81
2020/12/29 05:29:14;;;;;;;1.35;0.88;;;;;;;5.39;73.87;93614.87;1740171;82;21167;-80
2020/12/29 05:31:45;;;;;;;1.82;1.30;;;;;;;5.31;74.36;93613.86;1743088;81;21103;-80
2020/12/29 05:34:28;;;;;;;1.37;1.00;;;;;;;5.24;74.57;93620.89;1738432;81;21108;-80
2020/12/29 05:36:56;;;;;;;1.50;1.15;;;;;;;5.20;75.69;93621.02;1715047;82;21127;-80
2020/12/29 05:39:25;;;;;;;0.90;0.70;;;;;;;5.18;74.82;93631.24;1735710;81;21132;-80
2020/12/29 05:41:56;;;;;;;1.82;1.27;;;;;;;5.12;74.87;93647.84;1740503;81;21561;-80
2020/12/29 05:44:33;;;;;;;1.62;1.40;;;;;;;5.06;74.63;93656.43;1739097;81;21131;-80
2020/12/29 05:47:01;;;;;;;2.65;1.95;;;;;;;5.04;74.56;93653.76;1740662;81;21121;-80
2020/12/29 05:49:30;;;;;;;2.87;2.08;;;;;;;5.01;74.71;93660.63;1743175;81;21102;-80
2020/12/29 05:51:56;;;;;;;1.90;1.72;;;;;;;4.98;74.51;93669.56;1736547;81;21114;-80
2020/12/29 05:54:24;;;;;;;2.75;1.70;;;;;;;4.96;74.17;93665.63;1733826;81;21096;-80
2020/12/29 05:56:51;;;;;;;2.10;1.75;;;;;;;4.94;73.75;93679.22;1740761;81;21139;-80
2020/12/29 05:59:17;;;;;;;3.10;2.80;;;;;;;4.90;74.21;93687.86;1736028;81;21590;-80
2020/12/29 06:01:52;;;;;;;3.87;2.75;;;;;;;4.83;74.17;93694.34;1714480;81;21175;-81
2020/12/29 06:04:18;;;;;;;3.85;2.47;;;;;;;4.78;73.73;93697.27;1730537;82;21123;-80
2020/12/29 06:06:46;;;;;;;3.75;2.30;;;;;;;4.72;73.73;93707.91;1743417;81;21461;-80
2020/12/29 06:09:18;;;;;;;4.17;2.95;;;;;;;4.61;73.54;93708.58;1748835;81;21241;-80
2020/12/29 06:11:53;;;;;;;3.00;2.30;;;;;;;4.62;73.67;93735.87;1737043;81;21355;-80
2020/12/29 06:14:25;;;;;;;4.03;1.95;;;;;;;4.52;73.49;93744.05;1733317;81;21244;-80
2020/12/29 06:16:54;;;;;;;2.67;1.87;;;;;;;4.46;74.16;93750.53;1731563;81;21304;-80
2020/12/29 06:19:29;;;;;;;4.05;2.22;;;;;;;4.39;74.10;93754.91;1739648;81;21125;-80
2020/12/29 06:22:11;;;;;;;2.60;1.55;;;;;;;4.34;74.60;93766.32;1754329;81;21135;-80
2020/12/29 06:24:42;;;;;;;2.87;2.47;;;;;;;4.23;75.40;93775.50;1726902;81;21106;-80
2020/12/29 06:27:10;;;;;;;5.50;3.17;;;;;;;4.11;75.41;93774.06;1731840;81;21091;-80
2020/12/29 06:29:41;;;;;;;3.02;1.95;;;;;;;4.02;75.58;93770.14;1742313;81;21358;-79
2020/12/29 06:32:19;;;;;;;1.12;0.80;;;;;;;3.96;75.64;93771.47;1729747;81;21081;-80
2020/12/29 06:34:46;;;;;;;4.05;2.40;;;;;;;3.95;75.80;93793.02;1738652;81;21091;-80
2020/12/29 06:37:28;;;;;;;4.35;3.25;;;;;;;3.93;75.43;93805.28;1738052;81;21084;-80
2020/12/29 06:40:04;;;;;;;2.65;1.75;;;;;;;3.90;75.55;93818.83;1726560;81;21121;-79
2020/12/29 06:42:30;;;;;;;7.78;5.92;;;;;;;3.91;75.66;93844.81;1733007;81;21131;-80
2020/12/29 06:44:57;;;;;;;6.95;3.87;;;;;;;3.95;75.30;93855.46;1734821;81;21319;-80
2020/12/29 06:47:24;;;;;;;10.20;6.97;;;;;;;4.02;75.33;93872.92;1729761;81;21081;-80
2020/12/29 06:49:51;;;;;;;8.23;4.92;;;;;;;4.06;75.26;93896.42;1726667;81;21117;-80
2020/12/29 06:52:25;;;;;;;10.25;5.95;;;;;;;4.08;75.18;93915.81;1736124;81;21247;-80
2020/12/29 06:54:53;;;;;;;5.60;3.98;;;;;;;4.08;75.45;93922.73;1727147;81;21108;-80
2020/12/29 06:57:38;;;;;;;5.95;4.58;;;;;;;4.09;75.37;93936.66;1733421;81;21113;-80
2020/12/29 07:00:15;;;;;;;8.10;4.55;;;;;;;4.10;75.43;93956.23;1727815;81;21089;-80
2020/12/29 07:02:43;;;;;;;4.70;3.33;;;;;;;4.14;75.25;93966.89;1726336;81;21114;-80
2020/12/29 07:05:23;;;;;;;3.50;2.75;;;;;;;4.16;75.08;93981.12;1729789;81;21093;-80
2020/12/29 07:08:03;;;;;;;6.40;3.67;;;;;;;4.17;75.17;93991.69;1730016;81;21083;-80
2020/12/29 07:10:41;;;;;;;6.78;4.22;;;;;;;4.16;75.11;93992.69;1733673;81;21149;-81
2020/12/29 07:13:13;;;;;;;5.67;4.03;;;;;;;4.14;75.37;94006.23;1736613;82;21175;-81
2020/12/29 07:15:49;;;;;;;5.25;4.20;;;;;;;4.14;75.21;94015.23;1726061;82;21156;-80
2020/12/29 07:18:28;;;;;;;6.50;5.60;;;;;;;4.15;75.14;94016.81;1725693;81;21329;-81
2020/12/29 07:20:56;;;;;;;5.47;3.62;;;;;;;4.16;74.99;94019.67;1723102;82;21185;-80
2020/12/29 07:23:27;;;;;;;5.85;4.03;;;;;;;4.14;74.73;94033.71;1723067;81;21152;-80
2020/12/29 07:25:56;;;;;;;3.75;1.85;;;;;;;4.13;74.79;94046.27;1722903;81;21124;-80
2020/12/29 07:28:26;;;;;;;6.53;4.65;;;;;;;4.10;75.04;94053.89;1732081;81;21922;-80
2020/12/29 07:30:53;;;;;;;3.15;1.92;;;;;;;4.09;74.71;94063.08;1719907;81;21338;-79
2020/12/29 07:33:25;;;;;;;2.75;1.90;;;;;;;4.09;74.59;94072.08;1729702;81;21137;-79
2020/12/29 07:35:51;;;;;;;2.77;2.47;;;;;;;4.08;74.16;94086.70;1763585;80;21135;-79
2020/12/29 07:38:24;;;;;;;3.75;2.35;;;;;;;4.10;74.30;94099.36;1759002;80;21125;-80
2020/12/29 07:40:50;;;;;;;4.30;3.10;;;;;;;4.10;74.02;94114.28;1757553;81;21153;-79
2020/12/29 07:43:16;;;;;;;1.57;1.30;;;;;;;4.11;73.60;94129.20;1758977;81;21145;-80
2020/12/29 07:45:42;;;;;;;3.17;2.37;;;;;;;4.12;72.89;94137.21;1759594;81;21137;-79
2020/12/29 07:48:08;;;;;;;2.25;2.05;;;;;;;4.10;72.93;94145.13;1734292;80;21141;-79
2020/12/29 07:50:36;;;;;;;5.80;3.98;;;;;;;4.06;72.84;94152.11;1705602;81;21135;-79
2020/12/29 07:53:08;;;;;;;5.72;3.60;;;;;;;4.01;72.96;94151.91;1755039;81;21129;-78
2020/12/29 07:55:45;;;;;;;1.52;1.40;;;;;;;3.99;72.73;94159.03;1770494;79;22710;-79
2020/12/29 07:58:11;;;;;;;1.55;1.40;;;;;;;3.90;72.04;94161.80;1750425;80;21101;-79
2020/12/29 08:00:39;;;;;;;2.17;1.72;;;;;;;3.86;72.03;94165.72;1755265;80;21334;-79
2020/12/29 08:03:05;;;;;;;3.55;2.60;;;;;;;3.82;71.88;94167.59;1746787;80;21439;-79
2020/12/29 08:05:32;;;;;;;11.80;5.78;;;;;;;3.76;71.86;94168.38;1741986;80;21102;-79
2020/12/29 08:08:02;;;;;;;10.70;5.70;;;;;;;3.70;71.71;94176.34;1756471;80;21098;-79
2020/12/29 08:10:31;;;;;;;9.20;4.67;;;;;;;3.68;71.25;94171.11;1748039;80;21109;-78
2020/12/29 08:12:58;;;;;;;14.47;8.23;;;;;;;3.68;71.51;94168.54;1736993;80;21070;-80
2020/12/29 08:15:29;;;;;;;8.03;4.20;;;;;;;3.68;71.38;94176.24;1742547;80;21098;-80
2020/12/29 08:18:12;;;;;;;10.00;5.62;;;;;;;3.68;71.08;94176.24;1739774;80;21063;-80
2020/12/29 08:20:56;;;;;;;4.42;2.67;;;;;;;3.65;70.79;94186.41;1743583;80;21145;-80
2020/12/29 08:23:29;;;;;;;22.00;11.73;;;;;;;3.64;70.18;94193.03;1742278;80;21354;-81
2020/12/29 08:26:00;;;;;;;46.42;17.95;;;;;;;3.66;70.04;94197.48;1739993;80;21125;-80
2020/12/29 08:28:27;;;;;;;15.68;5.65;;;;;;;3.66;69.71;94199.55;1719992;82;21086;-80
2020/12/29 08:30:57;;;;;;;12.75;5.85;;;;;;;3.68;69.12;94207.06;1712155;82;21310;-80
2020/12/29 08:33:24;;;;;;;13.13;7.12;;;;;;;3.69;68.82;94206.87;1760417;80;21089;-80
2020/12/29 08:35:52;;;;;;;4.60;3.55;;;;;;;3.73;69.14;94215.77;1751394;80;21080;-80
2020/12/29 08:38:44;;;;;;;16.95;8.78;;;;;;;3.75;68.20;94215.60;1740126;80;21094;-80
2020/12/29 08:41:25;;;;;;;3.25;2.10;;;;;;;3.77;68.57;94218.77;1747593;80;21086;-80
2020/12/29 08:43:52;;;;;;;4.08;2.50;;;;;;;3.81;67.99;94228.95;1751779;80;21341;-80
2020/12/29 08:46:21;;;;;;;3.98;2.62;;;;;;;3.81;67.77;94244.36;1744566;80;21062;-81
2020/12/29 08:48:58;;;;;;;4.37;2.95;;;;;;;3.83;68.14;94252.66;1740038;80;21106;-81
2020/12/29 08:51:26;;;;;;;3.20;2.85;;;;;;;3.84;67.98;94251.68;1739943;80;21090;-81
2020/12/29 08:53:53;;;;;;;3.15;2.37;;;;;;;3.85;67.30;94277.17;1728031;80;21194;-81
2020/12/29 08:56:26;;;;;;;4.03;2.92;;;;;;;3.83;68.24;94265.51;1753565;81;21863;-81
2020/12/29 08:58:54;;;;;;;7.12;4.50;;;;;;;3.82;67.61;94280.13;1744750;81;21229;-81
2020/12/29 09:01:35;;;;;;;5.08;4.17;;;;;;;3.88;67.92;94285.78;1727009;81;21426;-82
2020/12/29 09:04:37;;;;;;;3.00;2.20;;;;;;;3.90;67.62;94285.13;1724996;81;21166;-82
2020/12/29 09:07:14;;;;;;;5.60;3.02;;;;;;;3.91;67.74;94292.34;1659521;84;21313;-82
2020/12/29 09:12:44;;;;;;;2.60;1.90;;;;;;;3.92;67.54;94292.63;1710869;81;21134;-81
2020/12/29 09:15:14;;;;;;;2.17;1.77;;;;;;;3.92;67.33;94313.19;1693819;82;21142;-83
2020/12/29 09:17:43;;;;;;;2.55;1.82;;;;;;;3.95;67.14;94303.81;1721376;81;21122;-83
2020/12/29 09:20:23;;;;;;;2.87;1.67;;;;;;;3.98;66.81;94307.27;1728632;82;21134;-83
2020/12/29 09:23:11;;;;;;;2.60;1.80;;;;;;;4.03;66.62;94317.77;1725307;81;21157;-82
2020/12/29 09:25:43;;;;;;;1.87;1.47;;;;;;;4.08;66.15;94323.14;1679578;83;21085;-82
2020/12/29 09:28:24;;;;;;;1.50;1.40;;;;;;;4.17;66.06;94298.05;1683285;83;21498;-83
2020/12/29 09:31:02;;;;;;;2.08;1.72;;;;;;;4.24;66.51;94307.87;1681785;83;21292;-82
2020/12/29 09:33:30;;;;;;;2.70;2.10;;;;;;;4.25;64.76;94309.46;1691572;84;21351;-83
2020/12/29 09:35:59;;;;;;;2.85;2.00;;;;;;;4.31;65.47;94329.25;1683103;83;21106;-82
2020/12/29 09:38:26;;;;;;;3.10;2.12;;;;;;;4.37;65.49;94345.67;1681271;83;21292;-82
2020/12/29 09:40:52;;;;;;;2.50;2.30;;;;;;;4.37;65.24;94331.53;1663249;84;21110;-82
2020/12/29 09:43:18;;;;;;;2.90;1.80;;;;;;;4.37;65.95;94359.31;1653112;84;21125;-82
2020/12/29 09:45:46;;;;;;;2.35;2.12;;;;;;;4.40;65.89;94352.53;1655999;84;21421;-82
2020/12/29 09:48:15;;;;;;;3.65;2.50;;;;;;;4.47;66.09;94343.53;1722891;81;21122;-83
2020/12/29 09:50:41;;;;;;;3.22;1.57;;;;;;;4.55;66.11;94339.48;1728902;82;21243;-82
2020/12/29 09:53:08;;;;;;;2.35;2.10;;;;;;;4.61;64.69;94339.23;1716527;81;21130;-82
2020/12/29 09:55:34;;;;;;;3.62;2.00;;;;;;;4.61;65.05;94334.08;1724666;81;21114;-82
2020/12/29 09:58:00;;;;;;;3.30;2.10;;;;;;;4.58;64.88;94329.33;1720725;82;21279;-82
2020/12/29 10:00:26;;;;;;;1.60;1.32;;;;;;;4.67;64.62;94337.15;1720919;82;21332;-82
2020/12/29 10:02:52;;;;;;;2.80;1.70;;;;;;;4.71;64.15;94347.34;1719518;82;21268;-82
2020/12/29 10:05:18;;;;;;;2.65;1.27;;;;;;;4.74;63.74;94350.34;1724907;82;21102;-84
2020/12/29 10:07:45;;;;;;;1.92;1.60;;;;;;;4.78;63.91;94359.74;1714770;81;21166;-83
2020/12/29 10:10:12;;;;;;;1.87;1.57;;;;;;;4.82;63.36;94357.86;1720763;82;21142;-82
2020/12/29 10:12:39;;;;;;;2.25;1.80;;;;;;;4.88;64.10;94358.88;1724029;82;21102;-83
2020/12/29 10:15:05;;;;;;;2.05;1.32;;;;;;;4.88;64.26;94361.45;1714104;81;21130;-84
2020/12/29 10:17:32;;;;;;;1.67;1.50;;;;;;;4.96;64.15;94371.55;1716330;81;21262;-83
2020/12/29 10:19:58;;;;;;;2.70;2.12;;;;;;;4.99;62.83;94349.77;1717957;82;21100;-84
2020/12/29 10:22:27;;;;;;;1.70;1.60;;;;;;;5.03;64.00;94378.77;1733551;81;21121;-85
2020/12/29 10:24:54;;;;;;;2.37;1.50;;;;;;;5.05;63.73;94376.82;1716221;82;21139;-84
2020/12/29 10:27:20;;;;;;;2.00;1.45;;;;;;;5.08;62.77;94393.65;1721182;81;21116;-83
2020/12/29 10:29:47;;;;;;;1.62;1.37;;;;;;;5.11;63.09;94379.09;1722212;81;21114;-84
2020/12/29 10:32:13;;;;;;;1.57;1.10;;;;;;;5.17;62.94;94401.96;1731857;82;21257;-83
2020/12/29 10:34:39;;;;;;;1.30;1.12;;;;;;;5.20;62.97;94394.63;1723073;81;21130;-83
2020/12/29 10:37:10;;;;;;;2.00;1.70;;;;;;;5.24;62.64;94389.41;1726738;81;21098;-83
2020/12/29 10:39:41;;;;;;;1.70;1.50;;;;;;;5.29;62.66;94402.48;1716102;82;21103;-83
2020/12/29 10:42:07;;;;;;;2.00;1.40;;;;;;;5.35;62.54;94398.31;1717832;81;21146;-84
2020/12/29 10:44:33;;;;;;;2.15;1.55;;;;;;;5.40;61.87;94395.46;1714878;82;21106;-84
2020/12/29 10:47:00;;;;;;;1.60;1.45;;;;;;;5.44;61.24;94404.87;1708866;81;21456;-84
2020/12/29 10:49:26;;;;;;;1.50;1.40;;;;;;;5.47;60.16;94396.73;1715550;82;21114;-85
2020/12/29 10:51:56;;;;;;;1.35;1.20;;;;;;;5.51;60.70;94408.72;1714837;82;21106;-84
2020/12/29 10:54:22;;;;;;;2.42;1.25;;;;;;;5.52;58.69;94390.98;1713150;81;21114;-83
2020/12/29 10:56:48;;;;;;;2.10;1.20;;;;;;;5.49;61.04;94399.91;1721993;82;21113;-83
2020/12/29 10:59:14;;;;;;;2.22;1.52;;;;;;;5.44;60.00;94412.59;1722660;82;21136;-84
2020/12/29 11:01:40;;;;;;;1.75;1.42;;;;;;;5.37;60.60;94410.03;1726119;81;21127;-84
2020/12/29 11:04:07;;;;;;;2.50;1.57;;;;;;;5.31;60.52;94400.50;1728657;81;21162;-83
2020/12/29 11:06:32;;;;;;;2.95;1.80;;;;;;;5.27;60.49;94405.75;1723333;81;21126;-84
2020/12/29 11:08:59;;;;;;;2.55;1.70;;;;;;;5.31;60.75;94399.20;1723251;82;21131;-83
2020/12/29 11:11:24;;;;;;;2.05;1.42;;;;;;;5.36;61.16;94409.70;1725518;82;21114;-84
2020/12/29 11:13:51;;;;;;;2.60;1.37;;;;;;;5.39;58.90;94404.18;1725648;82;21264;-83
2020/12/29 11:16:18;;;;;;;2.75;1.70;;;;;;;5.48;59.41;94399.61;1718793;81;21130;-83
2020/12/29 11:18:46;;;;;;;1.75;1.20;;;;;;;5.60;59.08;94408.83;1731718;82;21070;-83
2020/12/29 11:21:15;;;;;;;1.32;1.12;;;;;;;5.72;58.10;94411.11;1717631;81;21125;-83
2020/12/29 11:23:41;;;;;;;1.27;0.98;;;;;;;5.83;57.99;94406.62;1719557;81;21122;-83
2020/12/29 11:26:07;;;;;;;1.85;1.32;;;;;;;5.89;56.38;94410.98;1723767;81;21524;-83
2020/12/29 11:28:33;;;;;;;2.20;1.27;;;;;;;5.95;57.41;94417.94;1723532;82;21083;-83
2020/12/29 11:30:59;;;;;;;1.75;1.17;;;;;;;6.01;57.21;94420.99;1717983;81;21126;-83
2020/12/29 11:33:25;;;;;;;1.62;1.20;;;;;;;6.03;56.39;94440.16;1732789;82;21102;-83
2020/12/29 11:35:52;;;;;;;1.85;1.30;;;;;;;6.01;56.19;94435.17;1719469;80;21170;-83
2020/12/29 11:38:19;;;;;;;2.05;1.30;;;;;;;6.02;56.58;94433.42;1725928;81;21107;-83
2020/12/29 11:40:45;;;;;;;1.57;1.30;;;;;;;6.05;55.62;94438.66;1722549;82;21146;-83
2020/12/29 11:43:12;;;;;;;2.92;1.57;;;;;;;6.12;57.11;94445.37;1716499;81;21138;-83
2020/12/29 11:45:39;;;;;;;2.37;1.85;;;;;;;6.20;57.46;94454.21;1725558;81;21142;-85
2020/12/29 11:48:05;;;;;;;2.50;1.50;;;;;;;6.24;57.51;94447.64;1719968;81;21144;-82
2020/12/29 11:50:32;;;;;;;1.40;1.25;;;;;;;6.26;57.19;94450.81;1723152;81;21150;-84
2020/12/29 11:52:58;;;;;;;3.20;1.40;;;;;;;6.29;55.37;94463.30;1715327;82;21169;-84